sensor_id;sensor_type;location;lat;lon;timestamp;P1;durP1;ratioP1;P2;durP2;ratioP2
24273;SDS011;12392;42.678;23.380;2022-10-31T00:00:59;4.35;;;2.17;;
24273;SDS011;12392;42.678;23.380;2022-10-31T00:03:25;3.45;;;2.22;;
24273;SDS011;12392;42.678;23.380;2022-10-31T00:05:51;5.25;;;1.92;;
24273;SDS011;12392;42.678;23.380;2022-10-31T00:08:17;4.30;;;2.38;;
24273;SDS011;12392;42.678;23.380;2022-10-31T00:10:44;3.70;;;1.98;;
24273;SDS011;12392;42.678;23.380;2022-10-31T00:13:10;2.85;;;2.08;;
24273;SDS011;12392;42.678;23.380;2022-10-31T00:15:37;3.17;;;2.10;;
24273;SDS011;12392;42.678;23.380;2022-10-31T00:18:03;2.63;;;1.80;;
24273;SDS011;12392;42.678;23.380;2022-10-31T00:20:30;3.75;;;1.98;;
24273;SDS011;12392;42.678;23.380;2022-10-31T00:22:59;4.30;;;2.28;;
24273;SDS011;12392;42.678;23.380;2022-10-31T00:25:26;4.47;;;2.50;;
24273;SDS011;12392;42.678;23.380;2022-10-31T00:27:53;4.22;;;2.00;;
24273;SDS011;12392;42.678;23.380;2022-10-31T00:30:18;3.35;;;2.17;;
24273;SDS011;12392;42.678;23.380;2022-10-31T00:32:44;4.90;;;2.30;;
24273;SDS011;12392;42.678;23.380;2022-10-31T00:35:10;2.83;;;1.50;;
24273;SDS011;12392;42.678;23.380;2022-10-31T00:37:35;4.05;;;2.10;;
24273;SDS011;12392;42.678;23.380;2022-10-31T00:40:01;5.32;;;2.10;;
24273;SDS011;12392;42.678;23.380;2022-10-31T00:42:27;8.63;;;4.32;;
24273;SDS011;12392;42.678;23.380;2022-10-31T00:44:52;10.02;;;4.60;;
24273;SDS011;12392;42.678;23.380;2022-10-31T00:47:18;9.73;;;4.43;;
24273;SDS011;12392;42.678;23.380;2022-10-31T00:49:44;6.93;;;4.45;;
24273;SDS011;12392;42.678;23.380;2022-10-31T00:52:09;8.93;;;5.03;;
24273;SDS011;12392;42.678;23.380;2022-10-31T00:54:35;6.50;;;4.65;;
24273;SDS011;12392;42.678;23.380;2022-10-31T00:57:00;9.43;;;5.10;;
24273;SDS011;12392;42.678;23.380;2022-10-31T00:59:26;11.80;;;5.18;;
24273;SDS011;12392;42.678;23.380;2022-10-31T01:01:52;8.43;;;5.00;;
24273;SDS011;12392;42.678;23.380;2022-10-31T01:04:17;6.88;;;4.43;;
24273;SDS011;12392;42.678;23.380;2022-10-31T01:06:43;8.55;;;4.28;;
24273;SDS011;12392;42.678;23.380;2022-10-31T01:09:09;8.82;;;4.72;;
24273;SDS011;12392;42.678;23.380;2022-10-31T01:11:34;11.02;;;4.82;;
24273;SDS011;12392;42.678;23.380;2022-10-31T01:14:00;9.30;;;5.03;;
24273;SDS011;12392;42.678;23.380;2022-10-31T01:16:26;9.07;;;4.95;;
24273;SDS011;12392;42.678;23.380;2022-10-31T01:18:54;9.65;;;5.03;;
24273;SDS011;12392;42.678;23.380;2022-10-31T01:21:21;8.15;;;4.80;;
24273;SDS011;12392;42.678;23.380;2022-10-31T01:23:48;10.93;;;5.35;;
24273;SDS011;12392;42.678;23.380;2022-10-31T01:26:16;12.50;;;5.38;;
24273;SDS011;12392;42.678;23.380;2022-10-31T01:28:47;13.68;;;5.45;;
24273;SDS011;12392;42.678;23.380;2022-10-31T01:31:15;7.90;;;4.75;;
24273;SDS011;12392;42.678;23.380;2022-10-31T01:33:41;9.40;;;5.30;;
24273;SDS011;12392;42.678;23.380;2022-10-31T01:36:11;13.90;;;4.80;;
24273;SDS011;12392;42.678;23.380;2022-10-31T01:38:37;10.10;;;5.15;;
24273;SDS011;12392;42.678;23.380;2022-10-31T01:41:06;8.50;;;5.07;;
24273;SDS011;12392;42.678;23.380;2022-10-31T01:43:46;9.48;;;5.43;;
24273;SDS011;12392;42.678;23.380;2022-10-31T01:46:19;11.25;;;5.53;;
24273;SDS011;12392;42.678;23.380;2022-10-31T01:48:47;9.38;;;5.30;;
24273;SDS011;12392;42.678;23.380;2022-10-31T01:51:13;9.85;;;5.38;;
24273;SDS011;12392;42.678;23.380;2022-10-31T01:53:40;8.27;;;4.85;;
24273;SDS011;12392;42.678;23.380;2022-10-31T01:56:07;12.52;;;4.95;;
24273;SDS011;12392;42.678;23.380;2022-10-31T01:58:32;8.18;;;4.53;;
24273;SDS011;12392;42.678;23.380;2022-10-31T02:00:59;7.63;;;5.00;;
24273;SDS011;12392;42.678;23.380;2022-10-31T02:03:25;12.32;;;4.70;;
24273;SDS011;12392;42.678;23.380;2022-10-31T02:05:54;9.13;;;4.30;;
24273;SDS011;12392;42.678;23.380;2022-10-31T02:08:27;12.65;;;4.68;;
24273;SDS011;12392;42.678;23.380;2022-10-31T02:10:54;9.30;;;4.78;;
24273;SDS011;12392;42.678;23.380;2022-10-31T02:13:21;8.90;;;4.45;;
24273;SDS011;12392;42.678;23.380;2022-10-31T02:15:49;10.05;;;5.72;;
24273;SDS011;12392;42.678;23.380;2022-10-31T02:28:58;8.65;;;3.70;;
24273;SDS011;12392;42.678;23.380;2022-10-31T02:34:20;9.90;;;4.82;;
24273;SDS011;12392;42.678;23.380;2022-10-31T02:39:59;9.90;;;4.18;;
24273;SDS011;12392;42.678;23.380;2022-10-31T02:42:34;6.97;;;4.28;;
24273;SDS011;12392;42.678;23.380;2022-10-31T02:45:13;6.55;;;4.13;;
24273;SDS011;12392;42.678;23.380;2022-10-31T02:47:44;7.38;;;4.38;;
24273;SDS011;12392;42.678;23.380;2022-10-31T02:50:12;7.13;;;4.03;;
24273;SDS011;12392;42.678;23.380;2022-10-31T02:57:56;9.07;;;4.40;;
24273;SDS011;12392;42.678;23.380;2022-10-31T03:00:25;7.35;;;3.83;;
24273;SDS011;12392;42.678;23.380;2022-10-31T03:02:56;9.10;;;4.05;;
24273;SDS011;12392;42.678;23.380;2022-10-31T03:08:14;12.52;;;4.53;;
24273;SDS011;12392;42.678;23.380;2022-10-31T03:11:02;10.80;;;4.65;;
24273;SDS011;12392;42.678;23.380;2022-10-31T03:21:29;6.40;;;4.07;;
24273;SDS011;12392;42.678;23.380;2022-10-31T03:24:07;9.70;;;4.65;;
24273;SDS011;12392;42.678;23.380;2022-10-31T03:26:35;7.80;;;4.55;;
24273;SDS011;12392;42.678;23.380;2022-10-31T03:29:03;10.73;;;4.88;;
24273;SDS011;12392;42.678;23.380;2022-10-31T03:31:37;7.43;;;4.47;;
24273;SDS011;12392;42.678;23.380;2022-10-31T03:34:09;7.93;;;4.60;;
24273;SDS011;12392;42.678;23.380;2022-10-31T03:36:38;7.13;;;4.68;;
24273;SDS011;12392;42.678;23.380;2022-10-31T03:39:05;6.90;;;4.80;;
24273;SDS011;12392;42.678;23.380;2022-10-31T03:41:32;7.20;;;4.68;;
24273;SDS011;12392;42.678;23.380;2022-10-31T03:44:03;8.43;;;4.25;;
24273;SDS011;12392;42.678;23.380;2022-10-31T03:46:31;7.15;;;4.40;;
24273;SDS011;12392;42.678;23.380;2022-10-31T03:48:57;8.02;;;5.15;;
24273;SDS011;12392;42.678;23.380;2022-10-31T03:54:01;7.57;;;5.10;;
24273;SDS011;12392;42.678;23.380;2022-10-31T03:56:37;9.77;;;6.40;;
24273;SDS011;12392;42.678;23.380;2022-10-31T03:59:17;8.30;;;5.15;;
24273;SDS011;12392;42.678;23.380;2022-10-31T04:01:55;11.38;;;6.25;;
24273;SDS011;12392;42.678;23.380;2022-10-31T04:04:23;12.07;;;5.53;;
24273;SDS011;12392;42.678;23.380;2022-10-31T04:06:50;12.63;;;5.90;;
24273;SDS011;12392;42.678;23.380;2022-10-31T04:09:16;10.25;;;6.03;;
24273;SDS011;12392;42.678;23.380;2022-10-31T04:11:43;11.80;;;5.90;;
24273;SDS011;12392;42.678;23.380;2022-10-31T04:14:11;10.50;;;5.35;;
24273;SDS011;12392;42.678;23.380;2022-10-31T04:16:39;10.43;;;5.85;;
24273;SDS011;12392;42.678;23.380;2022-10-31T04:19:05;11.82;;;6.03;;
24273;SDS011;12392;42.678;23.380;2022-10-31T04:21:31;7.45;;;5.15;;
24273;SDS011;12392;42.678;23.380;2022-10-31T04:23:56;11.95;;;6.45;;
24273;SDS011;12392;42.678;23.380;2022-10-31T04:26:22;12.68;;;6.32;;
24273;SDS011;12392;42.678;23.380;2022-10-31T04:28:48;10.02;;;5.47;;
24273;SDS011;12392;42.678;23.380;2022-10-31T04:31:14;9.93;;;5.40;;
24273;SDS011;12392;42.678;23.380;2022-10-31T04:33:40;11.32;;;5.18;;
24273;SDS011;12392;42.678;23.380;2022-10-31T04:36:05;9.65;;;5.57;;
24273;SDS011;12392;42.678;23.380;2022-10-31T04:38:31;14.77;;;5.70;;
24273;SDS011;12392;42.678;23.380;2022-10-31T04:40:58;13.43;;;6.45;;
24273;SDS011;12392;42.678;23.380;2022-10-31T04:43:24;13.88;;;6.88;;
24273;SDS011;12392;42.678;23.380;2022-10-31T04:45:49;15.25;;;7.05;;
24273;SDS011;12392;42.678;23.380;2022-10-31T04:48:15;14.75;;;8.55;;
24273;SDS011;12392;42.678;23.380;2022-10-31T04:50:41;25.10;;;9.63;;
24273;SDS011;12392;42.678;23.380;2022-10-31T04:53:07;19.83;;;8.95;;
24273;SDS011;12392;42.678;23.380;2022-10-31T04:55:32;23.20;;;9.95;;
24273;SDS011;12392;42.678;23.380;2022-10-31T04:57:58;28.80;;;10.52;;
24273;SDS011;12392;42.678;23.380;2022-10-31T05:00:24;25.10;;;10.95;;
24273;SDS011;12392;42.678;23.380;2022-10-31T05:02:50;30.15;;;14.13;;
24273;SDS011;12392;42.678;23.380;2022-10-31T05:05:18;32.20;;;13.20;;
24273;SDS011;12392;42.678;23.380;2022-10-31T05:07:46;25.52;;;11.52;;
24273;SDS011;12392;42.678;23.380;2022-10-31T05:10:13;25.38;;;12.80;;
24273;SDS011;12392;42.678;23.380;2022-10-31T05:12:47;28.08;;;10.80;;
24273;SDS011;12392;42.678;23.380;2022-10-31T05:15:14;23.50;;;10.77;;
24273;SDS011;12392;42.678;23.380;2022-10-31T05:17:40;21.10;;;10.05;;
24273;SDS011;12392;42.678;23.380;2022-10-31T05:20:06;20.95;;;10.75;;
24273;SDS011;12392;42.678;23.380;2022-10-31T05:22:32;21.52;;;11.23;;
24273;SDS011;12392;42.678;23.380;2022-10-31T05:24:58;22.63;;;11.35;;
24273;SDS011;12392;42.678;23.380;2022-10-31T05:27:23;21.33;;;10.27;;
24273;SDS011;12392;42.678;23.380;2022-10-31T05:29:49;21.40;;;11.07;;
24273;SDS011;12392;42.678;23.380;2022-10-31T05:32:15;17.45;;;10.00;;
24273;SDS011;12392;42.678;23.380;2022-10-31T05:34:40;19.48;;;9.73;;
24273;SDS011;12392;42.678;23.380;2022-10-31T05:37:06;18.27;;;8.98;;
24273;SDS011;12392;42.678;23.380;2022-10-31T05:39:32;21.02;;;10.75;;
24273;SDS011;12392;42.678;23.380;2022-10-31T05:41:57;33.63;;;14.25;;
24273;SDS011;12392;42.678;23.380;2022-10-31T05:44:23;34.05;;;16.48;;
24273;SDS011;12392;42.678;23.380;2022-10-31T05:46:49;32.75;;;16.55;;
24273;SDS011;12392;42.678;23.380;2022-10-31T05:49:14;33.78;;;15.88;;
24273;SDS011;12392;42.678;23.380;2022-10-31T05:51:41;36.20;;;16.73;;
24273;SDS011;12392;42.678;23.380;2022-10-31T05:54:07;29.73;;;14.00;;
24273;SDS011;12392;42.678;23.380;2022-10-31T05:56:33;23.23;;;12.82;;
24273;SDS011;12392;42.678;23.380;2022-10-31T05:58:58;28.05;;;12.95;;
24273;SDS011;12392;42.678;23.380;2022-10-31T06:01:24;34.47;;;15.52;;
24273;SDS011;12392;42.678;23.380;2022-10-31T06:03:50;41.28;;;21.08;;
24273;SDS011;12392;42.678;23.380;2022-10-31T06:06:15;29.63;;;16.75;;
24273;SDS011;12392;42.678;23.380;2022-10-31T06:08:41;35.65;;;16.45;;
24273;SDS011;12392;42.678;23.380;2022-10-31T06:11:07;37.28;;;16.60;;
24273;SDS011;12392;42.678;23.380;2022-10-31T06:13:32;31.77;;;16.38;;
24273;SDS011;12392;42.678;23.380;2022-10-31T06:15:58;29.55;;;14.80;;
24273;SDS011;12392;42.678;23.380;2022-10-31T06:18:24;26.00;;;13.30;;
24273;SDS011;12392;42.678;23.380;2022-10-31T06:20:49;26.40;;;13.25;;
24273;SDS011;12392;42.678;23.380;2022-10-31T06:23:15;21.33;;;12.10;;
24273;SDS011;12392;42.678;23.380;2022-10-31T06:25:41;21.80;;;10.63;;
24273;SDS011;12392;42.678;23.380;2022-10-31T06:28:06;23.83;;;11.20;;
24273;SDS011;12392;42.678;23.380;2022-10-31T06:30:32;26.85;;;11.80;;
24273;SDS011;12392;42.678;23.380;2022-10-31T06:33:02;22.73;;;10.63;;
24273;SDS011;12392;42.678;23.380;2022-10-31T06:35:28;21.50;;;12.50;;
24273;SDS011;12392;42.678;23.380;2022-10-31T06:37:54;27.23;;;12.35;;
24273;SDS011;12392;42.678;23.380;2022-10-31T06:40:20;26.42;;;11.40;;
24273;SDS011;12392;42.678;23.380;2022-10-31T06:42:46;21.35;;;10.02;;
24273;SDS011;12392;42.678;23.380;2022-10-31T06:45:12;15.20;;;8.40;;
24273;SDS011;12392;42.678;23.380;2022-10-31T06:47:38;15.45;;;8.05;;
24273;SDS011;12392;42.678;23.380;2022-10-31T06:50:03;15.88;;;8.73;;
24273;SDS011;12392;42.678;23.380;2022-10-31T06:52:30;10.80;;;6.68;;
24273;SDS011;12392;42.678;23.380;2022-10-31T06:54:55;16.25;;;8.68;;
24273;SDS011;12392;42.678;23.380;2022-10-31T06:57:21;18.55;;;8.38;;
24273;SDS011;12392;42.678;23.380;2022-10-31T06:59:46;14.95;;;8.00;;
24273;SDS011;12392;42.678;23.380;2022-10-31T07:02:12;12.63;;;6.90;;
24273;SDS011;12392;42.678;23.380;2022-10-31T07:04:38;10.13;;;5.65;;
24273;SDS011;12392;42.678;23.380;2022-10-31T07:07:03;11.98;;;6.28;;
24273;SDS011;12392;42.678;23.380;2022-10-31T07:09:29;10.73;;;6.50;;
24273;SDS011;12392;42.678;23.380;2022-10-31T07:11:55;18.15;;;8.85;;
24273;SDS011;12392;42.678;23.380;2022-10-31T07:14:20;26.48;;;7.45;;
24273;SDS011;12392;42.678;23.380;2022-10-31T07:16:50;11.25;;;6.28;;
24273;SDS011;12392;42.678;23.380;2022-10-31T07:19:16;17.23;;;7.95;;
24273;SDS011;12392;42.678;23.380;2022-10-31T07:21:42;13.63;;;7.40;;
24273;SDS011;12392;42.678;23.380;2022-10-31T07:24:07;13.68;;;7.40;;
24273;SDS011;12392;42.678;23.380;2022-10-31T07:26:33;21.60;;;8.23;;
24273;SDS011;12392;42.678;23.380;2022-10-31T07:28:59;13.88;;;8.13;;
24273;SDS011;12392;42.678;23.380;2022-10-31T07:31:24;13.18;;;7.30;;
24273;SDS011;12392;42.678;23.380;2022-10-31T07:33:50;13.55;;;7.80;;
24273;SDS011;12392;42.678;23.380;2022-10-31T07:36:16;13.90;;;8.05;;
24273;SDS011;12392;42.678;23.380;2022-10-31T07:38:42;12.60;;;7.28;;
24273;SDS011;12392;42.678;23.380;2022-10-31T07:41:07;11.77;;;7.22;;
24273;SDS011;12392;42.678;23.380;2022-10-31T07:43:33;14.05;;;7.18;;
24273;SDS011;12392;42.678;23.380;2022-10-31T07:45:59;13.52;;;7.03;;
24273;SDS011;12392;42.678;23.380;2022-10-31T07:48:25;15.50;;;7.18;;
24273;SDS011;12392;42.678;23.380;2022-10-31T07:50:50;13.90;;;7.50;;
24273;SDS011;12392;42.678;23.380;2022-10-31T07:53:16;14.73;;;6.97;;
24273;SDS011;12392;42.678;23.380;2022-10-31T07:55:42;12.00;;;7.20;;
24273;SDS011;12392;42.678;23.380;2022-10-31T08:00:38;13.82;;;8.73;;
24273;SDS011;12392;42.678;23.380;2022-10-31T08:03:07;12.25;;;7.20;;
24273;SDS011;12392;42.678;23.380;2022-10-31T08:05:37;15.57;;;7.97;;
24273;SDS011;12392;42.678;23.380;2022-10-31T08:08:04;14.90;;;7.78;;
24273;SDS011;12392;42.678;23.380;2022-10-31T08:10:31;14.73;;;9.00;;
24273;SDS011;12392;42.678;23.380;2022-10-31T08:12:57;16.38;;;8.68;;
24273;SDS011;12392;42.678;23.380;2022-10-31T08:15:36;15.27;;;8.23;;
24273;SDS011;12392;42.678;23.380;2022-10-31T08:18:14;17.45;;;9.60;;
24273;SDS011;12392;42.678;23.380;2022-10-31T08:20:40;16.13;;;8.82;;
24273;SDS011;12392;42.678;23.380;2022-10-31T08:23:06;14.10;;;8.23;;
24273;SDS011;12392;42.678;23.380;2022-10-31T08:25:34;15.07;;;8.82;;
24273;SDS011;12392;42.678;23.380;2022-10-31T08:28:00;17.15;;;10.05;;
24273;SDS011;12392;42.678;23.380;2022-10-31T08:30:27;17.27;;;9.10;;
24273;SDS011;12392;42.678;23.380;2022-10-31T08:32:58;15.27;;;9.00;;
24273;SDS011;12392;42.678;23.380;2022-10-31T08:35:24;14.75;;;8.43;;
24273;SDS011;12392;42.678;23.380;2022-10-31T08:37:53;12.77;;;7.95;;
24273;SDS011;12392;42.678;23.380;2022-10-31T08:40:20;13.68;;;8.55;;
24273;SDS011;12392;42.678;23.380;2022-10-31T08:42:46;13.63;;;8.27;;
24273;SDS011;12392;42.678;23.380;2022-10-31T08:45:11;12.52;;;7.50;;
24273;SDS011;12392;42.678;23.380;2022-10-31T08:47:37;12.93;;;7.70;;
24273;SDS011;12392;42.678;23.380;2022-10-31T08:50:03;14.05;;;7.93;;
24273;SDS011;12392;42.678;23.380;2022-10-31T08:52:28;18.33;;;8.13;;
24273;SDS011;12392;42.678;23.380;2022-10-31T08:54:54;16.63;;;7.32;;
24273;SDS011;12392;42.678;23.380;2022-10-31T08:57:20;14.20;;;7.43;;
24273;SDS011;12392;42.678;23.380;2022-10-31T08:59:45;12.32;;;8.35;;
24273;SDS011;12392;42.678;23.380;2022-10-31T09:02:11;14.02;;;7.70;;
24273;SDS011;12392;42.678;23.380;2022-10-31T09:04:37;12.40;;;7.10;;
24273;SDS011;12392;42.678;23.380;2022-10-31T09:07:02;14.00;;;7.75;;
24273;SDS011;12392;42.678;23.380;2022-10-31T09:09:28;17.55;;;8.00;;
24273;SDS011;12392;42.678;23.380;2022-10-31T09:11:54;13.52;;;7.78;;
24273;SDS011;12392;42.678;23.380;2022-10-31T09:14:19;16.95;;;7.72;;
24273;SDS011;12392;42.678;23.380;2022-10-31T09:16:45;11.35;;;7.60;;
24273;SDS011;12392;42.678;23.380;2022-10-31T09:19:11;15.60;;;8.23;;
24273;SDS011;12392;42.678;23.380;2022-10-31T09:21:36;14.27;;;7.05;;
24273;SDS011;12392;42.678;23.380;2022-10-31T09:24:02;12.23;;;7.25;;
24273;SDS011;12392;42.678;23.380;2022-10-31T09:26:28;13.35;;;7.13;;
24273;SDS011;12392;42.678;23.380;2022-10-31T09:28:53;12.45;;;7.05;;
24273;SDS011;12392;42.678;23.380;2022-10-31T09:31:19;10.35;;;7.30;;
24273;SDS011;12392;42.678;23.380;2022-10-31T09:33:45;11.02;;;7.07;;
24273;SDS011;12392;42.678;23.380;2022-10-31T09:36:10;12.20;;;7.55;;
24273;SDS011;12392;42.678;23.380;2022-10-31T09:38:36;10.45;;;6.50;;
24273;SDS011;12392;42.678;23.380;2022-10-31T09:41:07;11.77;;;6.78;;
24273;SDS011;12392;42.678;23.380;2022-10-31T09:46:18;12.48;;;7.18;;
24273;SDS011;12392;42.678;23.380;2022-10-31T09:51:48;15.35;;;7.50;;
24273;SDS011;12392;42.678;23.380;2022-10-31T09:57:15;14.23;;;6.82;;
24273;SDS011;12392;42.678;23.380;2022-10-31T09:59:45;11.00;;;6.75;;
24273;SDS011;12392;42.678;23.380;2022-10-31T10:04:55;11.43;;;6.45;;
24273;SDS011;12392;42.678;23.380;2022-10-31T10:10:00;11.93;;;7.05;;
24273;SDS011;12392;42.678;23.380;2022-10-31T10:26:43;8.73;;;4.50;;
24273;SDS011;12392;42.678;23.380;2022-10-31T10:32:22;6.78;;;4.72;;
24273;SDS011;12392;42.678;23.380;2022-10-31T10:35:11;7.85;;;4.90;;
24273;SDS011;12392;42.678;23.380;2022-10-31T10:37:46;9.23;;;4.50;;
24273;SDS011;12392;42.678;23.380;2022-10-31T10:42:53;4.00;;;2.50;;
24273;SDS011;12392;42.678;23.380;2022-10-31T10:45:39;3.83;;;2.53;;
24273;SDS011;12392;42.678;23.380;2022-10-31T10:51:18;5.55;;;3.03;;
24273;SDS011;12392;42.678;23.380;2022-10-31T10:59:24;7.78;;;2.65;;
24273;SDS011;12392;42.678;23.380;2022-10-31T11:01:50;3.67;;;2.65;;
24273;SDS011;12392;42.678;23.380;2022-10-31T11:07:09;5.57;;;2.83;;
24273;SDS011;12392;42.678;23.380;2022-10-31T11:09:36;3.83;;;2.47;;
24273;SDS011;12392;42.678;23.380;2022-10-31T11:12:09;4.05;;;2.53;;
24273;SDS011;12392;42.678;23.380;2022-10-31T11:14:57;3.42;;;2.47;;
24273;SDS011;12392;42.678;23.380;2022-10-31T11:17:36;6.40;;;2.17;;
24273;SDS011;12392;42.678;23.380;2022-10-31T11:22:39;3.33;;;2.05;;
24273;SDS011;12392;42.678;23.380;2022-10-31T11:25:24;4.95;;;2.33;;
24273;SDS011;12392;42.678;23.380;2022-10-31T11:28:04;4.47;;;2.30;;
24273;SDS011;12392;42.678;23.380;2022-10-31T11:30:35;3.50;;;2.10;;
24273;SDS011;12392;42.678;23.380;2022-10-31T11:33:11;5.40;;;2.55;;
24273;SDS011;12392;42.678;23.380;2022-10-31T11:35:43;4.68;;;2.50;;
24273;SDS011;12392;42.678;23.380;2022-10-31T11:38:12;3.80;;;2.58;;
24273;SDS011;12392;42.678;23.380;2022-10-31T11:40:49;4.78;;;1.90;;
24273;SDS011;12392;42.678;23.380;2022-10-31T11:43:17;6.20;;;2.13;;
24273;SDS011;12392;42.678;23.380;2022-10-31T11:45:43;8.32;;;2.20;;
24273;SDS011;12392;42.678;23.380;2022-10-31T11:48:16;3.67;;;2.50;;
24273;SDS011;12392;42.678;23.380;2022-10-31T11:50:47;4.60;;;1.90;;
24273;SDS011;12392;42.678;23.380;2022-10-31T11:53:16;5.45;;;2.38;;
24273;SDS011;12392;42.678;23.380;2022-10-31T11:55:44;5.82;;;2.65;;
24273;SDS011;12392;42.678;23.380;2022-10-31T11:58:21;3.97;;;1.67;;
24273;SDS011;12392;42.678;23.380;2022-10-31T12:00:50;5.60;;;1.75;;
24273;SDS011;12392;42.678;23.380;2022-10-31T12:06:12;7.53;;;2.45;;
24273;SDS011;12392;42.678;23.380;2022-10-31T12:08:49;8.18;;;1.92;;
24273;SDS011;12392;42.678;23.380;2022-10-31T12:11:50;7.35;;;3.38;;
24273;SDS011;12392;42.678;23.380;2022-10-31T12:14:15;6.22;;;2.03;;
24273;SDS011;12392;42.678;23.380;2022-10-31T12:28:11;6.38;;;2.25;;
24273;SDS011;12392;42.678;23.380;2022-10-31T12:42:34;5.03;;;2.00;;
24273;SDS011;12392;42.678;23.380;2022-10-31T12:44:54;3.30;;;2.00;;
24273;SDS011;12392;42.678;23.380;2022-10-31T12:53:00;5.70;;;2.08;;
24273;SDS011;12392;42.678;23.380;2022-10-31T12:55:38;3.28;;;2.03;;
24273;SDS011;12392;42.678;23.380;2022-10-31T12:58:33;6.53;;;2.08;;
24273;SDS011;12392;42.678;23.380;2022-10-31T13:03:45;6.03;;;2.05;;
24273;SDS011;12392;42.678;23.380;2022-10-31T13:06:17;7.65;;;2.15;;
24273;SDS011;12392;42.678;23.380;2022-10-31T13:08:47;3.05;;;1.95;;
24273;SDS011;12392;42.678;23.380;2022-10-31T13:11:21;3.75;;;2.10;;
24273;SDS011;12392;42.678;23.380;2022-10-31T13:13:54;7.78;;;2.60;;
24273;SDS011;12392;42.678;23.380;2022-10-31T13:16:29;4.03;;;2.40;;
24273;SDS011;12392;42.678;23.380;2022-10-31T13:24:23;2.88;;;1.95;;
24273;SDS011;12392;42.678;23.380;2022-10-31T13:27:01;3.05;;;1.50;;
24273;SDS011;12392;42.678;23.380;2022-10-31T13:29:44;3.92;;;2.20;;
24273;SDS011;12392;42.678;23.380;2022-10-31T13:32:24;2.22;;;2.03;;
24273;SDS011;12392;42.678;23.380;2022-10-31T13:34:53;4.63;;;2.15;;
24273;SDS011;12392;42.678;23.380;2022-10-31T13:40:04;5.90;;;2.53;;
24273;SDS011;12392;42.678;23.380;2022-10-31T13:45:21;5.07;;;2.17;;
24273;SDS011;12392;42.678;23.380;2022-10-31T13:50:39;4.85;;;2.20;;
24273;SDS011;12392;42.678;23.380;2022-10-31T13:53:19;4.80;;;1.58;;
24273;SDS011;12392;42.678;23.380;2022-10-31T13:55:46;11.35;;;3.25;;
24273;SDS011;12392;42.678;23.380;2022-10-31T13:58:28;3.90;;;2.17;;
24273;SDS011;12392;42.678;23.380;2022-10-31T14:03:29;4.38;;;2.08;;
24273;SDS011;12392;42.678;23.380;2022-10-31T14:05:55;5.15;;;2.60;;
24273;SDS011;12392;42.678;23.380;2022-10-31T14:08:22;4.25;;;1.80;;
24273;SDS011;12392;42.678;23.380;2022-10-31T14:10:52;3.17;;;1.90;;
24273;SDS011;12392;42.678;23.380;2022-10-31T14:18:24;6.78;;;1.92;;
24273;SDS011;12392;42.678;23.380;2022-10-31T14:20:54;10.18;;;2.47;;
24273;SDS011;12392;42.678;23.380;2022-10-31T14:23:31;5.78;;;1.95;;
24273;SDS011;12392;42.678;23.380;2022-10-31T14:28:56;3.95;;;2.03;;
24273;SDS011;12392;42.678;23.380;2022-10-31T14:31:27;3.92;;;1.80;;
24273;SDS011;12392;42.678;23.380;2022-10-31T14:36:51;4.15;;;2.03;;
24273;SDS011;12392;42.678;23.380;2022-10-31T14:45:08;3.42;;;1.63;;
24273;SDS011;12392;42.678;23.380;2022-10-31T14:48:11;5.35;;;1.90;;
24273;SDS011;12392;42.678;23.380;2022-10-31T14:53:19;6.85;;;2.92;;
24273;SDS011;12392;42.678;23.380;2022-10-31T14:55:48;3.67;;;2.40;;
24273;SDS011;12392;42.678;23.380;2022-10-31T14:58:17;8.90;;;2.10;;
24273;SDS011;12392;42.678;23.380;2022-10-31T15:00:55;6.60;;;1.77;;
24273;SDS011;12392;42.678;23.380;2022-10-31T15:03:29;2.88;;;1.60;;
24273;SDS011;12392;42.678;23.380;2022-10-31T15:05:58;4.28;;;1.83;;
24273;SDS011;12392;42.678;23.380;2022-10-31T15:08:29;6.88;;;1.63;;
24273;SDS011;12392;42.678;23.380;2022-10-31T15:11:02;3.10;;;1.92;;
24273;SDS011;12392;42.678;23.380;2022-10-31T15:13:50;3.15;;;1.55;;
24273;SDS011;12392;42.678;23.380;2022-10-31T15:21:26;9.13;;;1.75;;
24273;SDS011;12392;42.678;23.380;2022-10-31T15:23:56;5.10;;;1.77;;
24273;SDS011;12392;42.678;23.380;2022-10-31T15:26:24;10.52;;;1.98;;
24273;SDS011;12392;42.678;23.380;2022-10-31T15:29:05;8.48;;;1.83;;
24273;SDS011;12392;42.678;23.380;2022-10-31T15:31:35;4.97;;;1.95;;
24273;SDS011;12392;42.678;23.380;2022-10-31T15:36:53;8.20;;;1.67;;
24273;SDS011;12392;42.678;23.380;2022-10-31T15:39:19;7.05;;;1.83;;
24273;SDS011;12392;42.678;23.380;2022-10-31T15:41:47;7.03;;;1.85;;
24273;SDS011;12392;42.678;23.380;2022-10-31T15:44:19;5.43;;;1.67;;
24273;SDS011;12392;42.678;23.380;2022-10-31T15:47:07;6.28;;;1.45;;
24273;SDS011;12392;42.678;23.380;2022-10-31T15:49:52;5.00;;;1.77;;
24273;SDS011;12392;42.678;23.380;2022-10-31T15:52:41;9.30;;;1.55;;
24273;SDS011;12392;42.678;23.380;2022-10-31T15:57:34;6.90;;;1.60;;
24273;SDS011;12392;42.678;23.380;2022-10-31T16:00:05;15.32;;;2.17;;
24273;SDS011;12392;42.678;23.380;2022-10-31T16:02:31;14.65;;;2.30;;
24273;SDS011;12392;42.678;23.380;2022-10-31T16:04:59;9.82;;;2.10;;
24273;SDS011;12392;42.678;23.380;2022-10-31T16:07:28;10.07;;;2.15;;
24273;SDS011;12392;42.678;23.380;2022-10-31T16:10:01;15.23;;;2.97;;
24273;SDS011;12392;42.678;23.380;2022-10-31T16:12:35;15.32;;;2.40;;
24273;SDS011;12392;42.678;23.380;2022-10-31T16:15:02;17.15;;;2.85;;
24273;SDS011;12392;42.678;23.380;2022-10-31T16:17:29;18.67;;;2.53;;
24273;SDS011;12392;42.678;23.380;2022-10-31T16:19:58;11.32;;;3.10;;
24273;SDS011;12392;42.678;23.380;2022-10-31T16:22:27;17.23;;;3.63;;
24273;SDS011;12392;42.678;23.380;2022-10-31T16:27:31;12.23;;;4.80;;
24273;SDS011;12392;42.678;23.380;2022-10-31T16:29:59;10.95;;;3.88;;
24273;SDS011;12392;42.678;23.380;2022-10-31T16:32:32;13.13;;;4.22;;
24273;SDS011;12392;42.678;23.380;2022-10-31T16:35:01;10.80;;;4.22;;
24273;SDS011;12392;42.678;23.380;2022-10-31T16:37:27;10.25;;;4.32;;
24273;SDS011;12392;42.678;23.380;2022-10-31T16:39:52;17.08;;;3.55;;
24273;SDS011;12392;42.678;23.380;2022-10-31T16:42:18;13.23;;;4.60;;
24273;SDS011;12392;42.678;23.380;2022-10-31T16:44:44;13.25;;;4.38;;
24273;SDS011;12392;42.678;23.380;2022-10-31T16:47:13;12.38;;;4.50;;
24273;SDS011;12392;42.678;23.380;2022-10-31T16:49:40;11.13;;;4.88;;
24273;SDS011;12392;42.678;23.380;2022-10-31T16:52:07;17.23;;;4.47;;
24273;SDS011;12392;42.678;23.380;2022-10-31T16:54:32;13.02;;;5.00;;
24273;SDS011;12392;42.678;23.380;2022-10-31T16:56:59;15.02;;;4.55;;
24273;SDS011;12392;42.678;23.380;2022-10-31T16:59:25;13.73;;;5.20;;
24273;SDS011;12392;42.678;23.380;2022-10-31T17:01:51;14.63;;;5.57;;
24273;SDS011;12392;42.678;23.380;2022-10-31T17:04:18;19.08;;;5.28;;
24273;SDS011;12392;42.678;23.380;2022-10-31T17:06:43;22.65;;;5.40;;
24273;SDS011;12392;42.678;23.380;2022-10-31T17:09:09;18.60;;;5.30;;
24273;SDS011;12392;42.678;23.380;2022-10-31T17:11:35;18.33;;;4.55;;
24273;SDS011;12392;42.678;23.380;2022-10-31T17:14:01;14.10;;;4.40;;
24273;SDS011;12392;42.678;23.380;2022-10-31T17:16:28;7.03;;;3.55;;
24273;SDS011;12392;42.678;23.380;2022-10-31T17:18:54;15.18;;;4.60;;
24273;SDS011;12392;42.678;23.380;2022-10-31T17:21:20;11.88;;;4.03;;
24273;SDS011;12392;42.678;23.380;2022-10-31T17:23:47;9.45;;;4.95;;